sensor_id;sensor_type;location;lat;lon;timestamp;temperature;humidity
30148;DHT22;16960;49.404;8.248;2022-09-09T00:01:43;24.60;47.30
30148;DHT22;16960;49.404;8.248;2022-09-09T00:04:20;24.60;47.30
30148;DHT22;16960;49.404;8.248;2022-09-09T00:06:58;24.60;47.30
30148;DHT22;16960;49.404;8.248;2022-09-09T00:09:30;24.60;47.40
30148;DHT22;16960;49.404;8.248;2022-09-09T00:12:02;24.60;47.30
30148;DHT22;16960;49.404;8.248;2022-09-09T00:14:37;24.60;47.40
30148;DHT22;16960;49.404;8.248;2022-09-09T00:17:11;24.60;47.30
30148;DHT22;16960;49.404;8.248;2022-09-09T00:19:41;24.60;47.30
30148;DHT22;16960;49.404;8.248;2022-09-09T00:22:16;24.60;47.40
30148;DHT22;16960;49.404;8.248;2022-09-09T00:24:46;24.50;47.30
30148;DHT22;16960;49.404;8.248;2022-09-09T00:27:25;24.50;47.30
30148;DHT22;16960;49.404;8.248;2022-09-09T00:29:58;24.60;47.30
30148;DHT22;16960;49.404;8.248;2022-09-09T00:32:30;24.50;47.40
30148;DHT22;16960;49.404;8.248;2022-09-09T00:35:02;24.50;47.30
30148;DHT22;16960;49.404;8.248;2022-09-09T00:37:31;24.50;47.30
30148;DHT22;16960;49.404;8.248;2022-09-09T00:40:11;24.50;47.40
30148;DHT22;16960;49.404;8.248;2022-09-09T00:42:43;24.60;47.40
30148;DHT22;16960;49.404;8.248;2022-09-09T00:45:33;24.50;47.40
30148;DHT22;16960;49.404;8.248;2022-09-09T00:48:04;24.50;47.40
30148;DHT22;16960;49.404;8.248;2022-09-09T00:50:44;24.50;47.40
30148;DHT22;16960;49.404;8.248;2022-09-09T00:53:28;24.50;47.40
30148;DHT22;16960;49.404;8.248;2022-09-09T00:56:09;24.50;48.10
30148;DHT22;16960;49.404;8.248;2022-09-09T00:58:38;24.50;47.50
30148;DHT22;16960;49.404;8.248;2022-09-09T01:01:09;24.50;47.50
30148;DHT22;16960;49.404;8.248;2022-09-09T01:03:38;24.50;47.50
30148;DHT22;16960;49.404;8.248;2022-09-09T01:06:16;24.50;47.50
30148;DHT22;16960;49.404;8.248;2022-09-09T01:09:13;24.50;47.50
30148;DHT22;16960;49.404;8.248;2022-09-09T01:11:51;24.50;47.50
30148;DHT22;16960;49.404;8.248;2022-09-09T01:14:33;24.40;48.10
30148;DHT22;16960;49.404;8.248;2022-09-09T01:17:05;24.50;47.50
30148;DHT22;16960;49.404;8.248;2022-09-09T01:22:33;24.50;47.50
30148;DHT22;16960;49.404;8.248;2022-09-09T01:25:28;24.50;47.50
30148;DHT22;16960;49.404;8.248;2022-09-09T01:27:59;24.50;47.50
30148;DHT22;16960;49.404;8.248;2022-09-09T01:30:28;24.40;47.40
30148;DHT22;16960;49.404;8.248;2022-09-09T01:32:56;24.40;47.50
30148;DHT22;16960;49.404;8.248;2022-09-09T01:35:39;24.40;47.50
30148;DHT22;16960;49.404;8.248;2022-09-09T01:38:10;24.40;47.50
30148;DHT22;16960;49.404;8.248;2022-09-09T01:40:37;24.40;47.60
30148;DHT22;16960;49.404;8.248;2022-09-09T01:43:06;24.40;47.60
30148;DHT22;16960;49.404;8.248;2022-09-09T01:45:33;24.40;47.50
30148;DHT22;16960;49.404;8.248;2022-09-09T01:48:00;24.40;47.50
30148;DHT22;16960;49.404;8.248;2022-09-09T01:50:28;24.40;47.50
30148;DHT22;16960;49.404;8.248;2022-09-09T01:52:58;24.40;47.60
30148;DHT22;16960;49.404;8.248;2022-09-09T01:55:30;24.40;47.60
30148;DHT22;16960;49.404;8.248;2022-09-09T01:58:10;24.40;47.70
30148;DHT22;16960;49.404;8.248;2022-09-09T02:00:45;24.30;47.70
30148;DHT22;16960;49.404;8.248;2022-09-09T02:03:21;24.40;47.70
30148;DHT22;16960;49.404;8.248;2022-09-09T02:05:55;24.40;47.70
30148;DHT22;16960;49.404;8.248;2022-09-09T02:08:29;24.40;47.70
30148;DHT22;16960;49.404;8.248;2022-09-09T02:11:03;24.40;47.70
30148;DHT22;16960;49.404;8.248;2022-09-09T02:13:35;24.30;47.80
30148;DHT22;16960;49.404;8.248;2022-09-09T02:16:07;24.40;47.70
30148;DHT22;16960;49.404;8.248;2022-09-09T02:18:38;24.30;47.70
30148;DHT22;16960;49.404;8.248;2022-09-09T02:21:07;24.30;47.80
30148;DHT22;16960;49.404;8.248;2022-09-09T02:23:34;24.30;47.80
30148;DHT22;16960;49.404;8.248;2022-09-09T02:26:02;24.30;47.80
30148;DHT22;16960;49.404;8.248;2022-09-09T02:28:33;24.30;47.90
30148;DHT22;16960;49.404;8.248;2022-09-09T02:31:01;24.30;47.80
30148;DHT22;16960;49.404;8.248;2022-09-09T02:33:32;24.30;47.90
30148;DHT22;16960;49.404;8.248;2022-09-09T02:36:01;24.30;47.90
30148;DHT22;16960;49.404;8.248;2022-09-09T02:38:36;24.30;47.90
30148;DHT22;16960;49.404;8.248;2022-09-09T02:41:05;24.30;48.00
30148;DHT22;16960;49.404;8.248;2022-09-09T02:43:34;24.30;48.00
30148;DHT22;16960;49.404;8.248;2022-09-09T02:46:08;24.30;48.00
30148;DHT22;16960;49.404;8.248;2022-09-09T02:48:47;24.30;48.00
30148;DHT22;16960;49.404;8.248;2022-09-09T02:51:22;24.30;48.00
30148;DHT22;16960;49.404;8.248;2022-09-09T02:53:59;24.30;48.00
30148;DHT22;16960;49.404;8.248;2022-09-09T02:56:32;24.30;48.00
30148;DHT22;16960;49.404;8.248;2022-09-09T02:59:06;24.30;48.00
30148;DHT22;16960;49.404;8.248;2022-09-09T03:01:33;24.30;48.00
30148;DHT22;16960;49.404;8.248;2022-09-09T03:04:01;24.30;48.00
30148;DHT22;16960;49.404;8.248;2022-09-09T03:06:30;24.30;48.10
30148;DHT22;16960;49.404;8.248;2022-09-09T03:08:57;24.30;48.00
30148;DHT22;16960;49.404;8.248;2022-09-09T03:11:26;24.30;48.10
30148;DHT22;16960;49.404;8.248;2022-09-09T03:13:53;24.30;48.10
30148;DHT22;16960;49.404;8.248;2022-09-09T03:16:23;24.30;48.20
30148;DHT22;16960;49.404;8.248;2022-09-09T03:18:50;24.30;48.10
30148;DHT22;16960;49.404;8.248;2022-09-09T03:21:17;24.30;48.10
30148;DHT22;16960;49.404;8.248;2022-09-09T03:23:43;24.30;48.20
30148;DHT22;16960;49.404;8.248;2022-09-09T03:26:11;24.30;48.20
30148;DHT22;16960;49.404;8.248;2022-09-09T03:28:40;24.20;48.10
30148;DHT22;16960;49.404;8.248;2022-09-09T03:31:07;24.20;48.10
30148;DHT22;16960;49.404;8.248;2022-09-09T03:33:37;24.20;48.10
30148;DHT22;16960;49.404;8.248;2022-09-09T03:36:05;24.20;48.10
30148;DHT22;16960;49.404;8.248;2022-09-09T03:38:33;24.20;48.80
30148;DHT22;16960;49.404;8.248;2022-09-09T03:41:00;24.20;48.10
30148;DHT22;16960;49.404;8.248;2022-09-09T03:43:28;24.20;48.10
30148;DHT22;16960;49.404;8.248;2022-09-09T03:45:55;24.20;48.10
30148;DHT22;16960;49.404;8.248;2022-09-09T03:48:23;24.20;48.10
30148;DHT22;16960;49.404;8.248;2022-09-09T03:50:53;24.20;48.80
30148;DHT22;16960;49.404;8.248;2022-09-09T03:53:22;24.20;48.10
30148;DHT22;16960;49.404;8.248;2022-09-09T03:55:52;24.20;48.10
30148;DHT22;16960;49.404;8.248;2022-09-09T03:58:21;24.20;48.10
30148;DHT22;16960;49.404;8.248;2022-09-09T04:01:00;24.20;48.10
30148;DHT22;16960;49.404;8.248;2022-09-09T04:03:28;24.20;48.10
30148;DHT22;16960;49.404;8.248;2022-09-09T04:05:58;24.20;48.10
30148;DHT22;16960;49.404;8.248;2022-09-09T04:08:25;24.20;48.10
30148;DHT22;16960;49.404;8.248;2022-09-09T04:10:53;24.20;48.10
30148;DHT22;16960;49.404;8.248;2022-09-09T04:13:23;24.20;48.10
30148;DHT22;16960;49.404;8.248;2022-09-09T04:15:51;24.20;48.10
30148;DHT22;16960;49.404;8.248;2022-09-09T04:18:19;24.20;48.10
30148;DHT22;16960;49.404;8.248;2022-09-09T04:20:46;24.10;48.90
30148;DHT22;16960;49.404;8.248;2022-09-09T04:23:15;24.10;48.20
30148;DHT22;16960;49.404;8.248;2022-09-09T04:25:45;24.10;48.30
30148;DHT22;16960;49.404;8.248;2022-09-09T04:28:12;24.10;48.90
30148;DHT22;16960;49.404;8.248;2022-09-09T04:30:40;24.10;48.20
30148;DHT22;16960;49.404;8.248;2022-09-09T04:33:07;24.10;48.20
30148;DHT22;16960;49.404;8.248;2022-09-09T04:35:35;24.10;48.20
30148;DHT22;16960;49.404;8.248;2022-09-09T04:38:02;24.10;48.20
30148;DHT22;16960;49.404;8.248;2022-09-09T04:40:31;24.10;48.20
30148;DHT22;16960;49.404;8.248;2022-09-09T04:42:58;24.10;49.00
30148;DHT22;16960;49.404;8.248;2022-09-09T04:45:26;24.10;48.30
30148;DHT22;16960;49.404;8.248;2022-09-09T04:47:53;24.10;48.40
30148;DHT22;16960;49.404;8.248;2022-09-09T04:50:20;24.10;48.40
30148;DHT22;16960;49.404;8.248;2022-09-09T04:52:47;24.10;48.40
30148;DHT22;16960;49.404;8.248;2022-09-09T04:55:14;24.10;48.40
30148;DHT22;16960;49.404;8.248;2022-09-09T04:57:43;24.00;48.30
30148;DHT22;16960;49.404;8.248;2022-09-09T05:00:11;24.00;48.30
30148;DHT22;16960;49.404;8.248;2022-09-09T05:02:38;24.00;48.30
30148;DHT22;16960;49.404;8.248;2022-09-09T05:05:06;24.10;48.40
30148;DHT22;16960;49.404;8.248;2022-09-09T05:07:33;24.00;48.30
30148;DHT22;16960;49.404;8.248;2022-09-09T05:10:00;24.00;48.30
30148;DHT22;16960;49.404;8.248;2022-09-09T05:12:30;24.00;48.30
30148;DHT22;16960;49.404;8.248;2022-09-09T05:14:58;24.00;48.30
30148;DHT22;16960;49.404;8.248;2022-09-09T05:17:25;24.00;48.30
30148;DHT22;16960;49.404;8.248;2022-09-09T05:19:53;24.00;48.40
30148;DHT22;16960;49.404;8.248;2022-09-09T05:22:20;24.00;48.40
30148;DHT22;16960;49.404;8.248;2022-09-09T05:24:48;24.00;48.40
30148;DHT22;16960;49.404;8.248;2022-09-09T05:27:16;24.00;48.40
30148;DHT22;16960;49.404;8.248;2022-09-09T05:29:45;24.00;48.50
30148;DHT22;16960;49.404;8.248;2022-09-09T05:32:13;24.00;48.50
30148;DHT22;16960;49.404;8.248;2022-09-09T05:34:41;24.00;48.50
30148;DHT22;16960;49.404;8.248;2022-09-09T05:37:07;24.00;48.50
30148;DHT22;16960;49.404;8.248;2022-09-09T05:39:34;24.00;48.50
30148;DHT22;16960;49.404;8.248;2022-09-09T05:42:04;24.00;48.60
30148;DHT22;16960;49.404;8.248;2022-09-09T05:44:31;24.00;48.60
30148;DHT22;16960;49.404;8.248;2022-09-09T05:46:58;24.00;48.70
30148;DHT22;16960;49.404;8.248;2022-09-09T05:49:26;24.00;48.60
30148;DHT22;16960;49.404;8.248;2022-09-09T05:51:53;24.00;48.60
30148;DHT22;16960;49.404;8.248;2022-09-09T05:54:20;24.00;48.60
30148;DHT22;16960;49.404;8.248;2022-09-09T05:56:47;24.00;48.60
30148;DHT22;16960;49.404;8.248;2022-09-09T05:59:15;24.00;48.60
30148;DHT22;16960;49.404;8.248;2022-09-09T06:01:42;24.00;48.60
30148;DHT22;16960;49.404;8.248;2022-09-09T06:04:10;24.00;48.60
30148;DHT22;16960;49.404;8.248;2022-09-09T06:06:39;24.00;48.60
30148;DHT22;16960;49.404;8.248;2022-09-09T06:09:08;23.90;48.60
30148;DHT22;16960;49.404;8.248;2022-09-09T06:11:37;23.90;48.90
30148;DHT22;16960;49.404;8.248;2022-09-09T06:14:05;23.90;49.00
30148;DHT22;16960;49.404;8.248;2022-09-09T06:16:33;23.90;49.20
30148;DHT22;16960;49.404;8.248;2022-09-09T06:19:01;24.00;48.90
30148;DHT22;16960;49.404;8.248;2022-09-09T06:21:30;24.00;48.90
30148;DHT22;16960;49.404;8.248;2022-09-09T06:24:00;24.00;48.90
30148;DHT22;16960;49.404;8.248;2022-09-09T06:26:28;24.00;48.80
30148;DHT22;16960;49.404;8.248;2022-09-09T06:28:56;24.00;48.70
30148;DHT22;16960;49.404;8.248;2022-09-09T06:31:25;24.00;48.60
30148;DHT22;16960;49.404;8.248;2022-09-09T06:33:53;24.10;48.80
30148;DHT22;16960;49.404;8.248;2022-09-09T06:36:22;24.10;48.70
30148;DHT22;16960;49.404;8.248;2022-09-09T06:38:49;24.10;48.70
30148;DHT22;16960;49.404;8.248;2022-09-09T06:41:21;24.10;48.70
30148;DHT22;16960;49.404;8.248;2022-09-09T06:43:48;24.20;48.60
30148;DHT22;16960;49.404;8.248;2022-09-09T06:46:17;24.20;48.50
30148;DHT22;16960;49.404;8.248;2022-09-09T06:48:45;24.20;48.50
30148;DHT22;16960;49.404;8.248;2022-09-09T06:51:14;24.20;48.50
30148;DHT22;16960;49.404;8.248;2022-09-09T06:53:43;24.20;48.40
30148;DHT22;16960;49.404;8.248;2022-09-09T06:56:30;24.20;48.40
30148;DHT22;16960;49.404;8.248;2022-09-09T06:59:00;24.20;48.40
30148;DHT22;16960;49.404;8.248;2022-09-09T07:01:30;24.30;48.40
30148;DHT22;16960;49.404;8.248;2022-09-09T07:03:58;24.30;48.50
30148;DHT22;16960;49.404;8.248;2022-09-09T07:06:27;24.30;48.50
30148;DHT22;16960;49.404;8.248;2022-09-09T07:08:55;24.30;48.50
30148;DHT22;16960;49.404;8.248;2022-09-09T07:11:25;24.30;48.50
30148;DHT22;16960;49.404;8.248;2022-09-09T07:13:54;24.30;48.40
30148;DHT22;16960;49.404;8.248;2022-09-09T07:16:21;24.30;48.40
30148;DHT22;16960;49.404;8.248;2022-09-09T07:18:50;24.30;48.40
30148;DHT22;16960;49.404;8.248;2022-09-09T07:21:18;24.40;48.30
30148;DHT22;16960;49.404;8.248;2022-09-09T07:23:46;24.40;48.30
30148;DHT22;16960;49.404;8.248;2022-09-09T07:26:15;24.40;48.30
30148;DHT22;16960;49.404;8.248;2022-09-09T07:28:43;24.40;48.30
30148;DHT22;16960;49.404;8.248;2022-09-09T07:31:14;24.40;48.30
30148;DHT22;16960;49.404;8.248;2022-09-09T07:33:42;24.40;48.30
30148;DHT22;16960;49.404;8.248;2022-09-09T07:36:12;24.40;48.30
30148;DHT22;16960;49.404;8.248;2022-09-09T07:38:40;24.40;48.30
30148;DHT22;16960;49.404;8.248;2022-09-09T07:41:10;24.40;48.30
30148;DHT22;16960;49.404;8.248;2022-09-09T07:43:38;24.40;48.30
30148;DHT22;16960;49.404;8.248;2022-09-09T07:46:08;24.40;48.30
30148;DHT22;16960;49.404;8.248;2022-09-09T07:48:37;24.40;48.30
30148;DHT22;16960;49.404;8.248;2022-09-09T07:51:06;24.40;48.30
30148;DHT22;16960;49.404;8.248;2022-09-09T07:53:33;24.40;48.30
30148;DHT22;16960;49.404;8.248;2022-09-09T07:56:06;24.50;48.30
30148;DHT22;16960;49.404;8.248;2022-09-09T07:58:34;24.40;48.30
30148;DHT22;16960;49.404;8.248;2022-09-09T08:01:07;24.40;48.30
30148;DHT22;16960;49.404;8.248;2022-09-09T08:03:34;24.40;48.50
30148;DHT22;16960;49.404;8.248;2022-09-09T08:06:05;24.40;48.60
30148;DHT22;16960;49.404;8.248;2022-09-09T08:08:33;24.50;48.60
30148;DHT22;16960;49.404;8.248;2022-09-09T08:11:04;24.50;48.60
30148;DHT22;16960;49.404;8.248;2022-09-09T08:13:33;24.50;48.60
30148;DHT22;16960;49.404;8.248;2022-09-09T08:16:05;24.50;48.60
30148;DHT22;16960;49.404;8.248;2022-09-09T08:18:32;24.50;48.70
30148;DHT22;16960;49.404;8.248;2022-09-09T08:21:07;24.50;48.70
30148;DHT22;16960;49.404;8.248;2022-09-09T08:23:34;24.50;48.60
30148;DHT22;16960;49.404;8.248;2022-09-09T08:26:06;24.50;48.70
30148;DHT22;16960;49.404;8.248;2022-09-09T08:28:34;24.50;48.70
30148;DHT22;16960;49.404;8.248;2022-09-09T08:31:09;24.50;48.70
30148;DHT22;16960;49.404;8.248;2022-09-09T08:33:37;24.50;48.80
30148;DHT22;16960;49.404;8.248;2022-09-09T08:36:08;24.50;49.00
30148;DHT22;16960;49.404;8.248;2022-09-09T08:38:35;24.50;49.00
30148;DHT22;16960;49.404;8.248;2022-09-09T08:41:31;24.50;49.10
30148;DHT22;16960;49.404;8.248;2022-09-09T08:44:05;24.60;49.10
30148;DHT22;16960;49.404;8.248;2022-09-09T08:46:39;24.60;49.10
30148;DHT22;16960;49.404;8.248;2022-09-09T08:49:34;24.60;49.10
30148;DHT22;16960;49.404;8.248;2022-09-09T08:52:09;24.70;49.10
30148;DHT22;16960;49.404;8.248;2022-09-09T08:54:38;24.60;48.90
30148;DHT22;16960;49.404;8.248;2022-09-09T08:57:14;24.70;49.10
30148;DHT22;16960;49.404;8.248;2022-09-09T08:59:41;24.70;49.20
30148;DHT22;16960;49.404;8.248;2022-09-09T09:02:15;24.70;49.20
30148;DHT22;16960;49.404;8.248;2022-09-09T09:04:56;24.70;49.10
30148;DHT22;16960;49.404;8.248;2022-09-09T09:07:41;24.70;49.00
30148;DHT22;16960;49.404;8.248;2022-09-09T09:10:16;24.70;48.90
30148;DHT22;16960;49.404;8.248;2022-09-09T09:12:45;24.80;48.80
30148;DHT22;16960;49.404;8.248;2022-09-09T09:15:17;24.80;48.80
30148;DHT22;16960;49.404;8.248;2022-09-09T09:17:45;24.80;48.80
30148;DHT22;16960;49.404;8.248;2022-09-09T09:20:13;24.80;48.90
30148;DHT22;16960;49.404;8.248;2022-09-09T09:22:47;24.80;48.90
30148;DHT22;16960;49.404;8.248;2022-09-09T09:25:18;24.80;48.90
30148;DHT22;16960;49.404;8.248;2022-09-09T09:27:52;24.80;48.90
30148;DHT22;16960;49.404;8.248;2022-09-09T09:30:21;24.80;48.80
30148;DHT22;16960;49.404;8.248;2022-09-09T09:32:52;24.80;48.70
30148;DHT22;16960;49.404;8.248;2022-09-09T09:35:20;24.80;48.70
30148;DHT22;16960;49.404;8.248;2022-09-09T09:37:49;24.80;48.70
30148;DHT22;16960;49.404;8.248;2022-09-09T09:40:18;24.80;48.70
30148;DHT22;16960;49.404;8.248;2022-09-09T09:42:53;24.80;48.70
30148;DHT22;16960;49.404;8.248;2022-09-09T09:45:27;24.80;48.70
30148;DHT22;16960;49.404;8.248;2022-09-09T09:48:02;24.80;48.80
30148;DHT22;16960;49.404;8.248;2022-09-09T09:50:31;24.80;48.80
30148;DHT22;16960;49.404;8.248;2022-09-09T09:53:02;24.90;49.00
30148;DHT22;16960;49.404;8.248;2022-09-09T09:55:31;24.90;49.00
30148;DHT22;16960;49.404;8.248;2022-09-09T09:58:03;24.90;48.90
30148;DHT22;16960;49.404;8.248;2022-09-09T10:00:31;24.90;49.00
30148;DHT22;16960;49.404;8.248;2022-09-09T10:03:00;24.90;48.90
30148;DHT22;16960;49.404;8.248;2022-09-09T10:05:28;25.00;48.80
30148;DHT22;16960;49.404;8.248;2022-09-09T10:08:08;25.00;48.70
30148;DHT22;16960;49.404;8.248;2022-09-09T10:10:49;25.00;48.40
30148;DHT22;16960;49.404;8.248;2022-09-09T10:13:22;25.00;48.10
30148;DHT22;16960;49.404;8.248;2022-09-09T10:16:00;25.00;48.00
30148;DHT22;16960;49.404;8.248;2022-09-09T10:18:38;25.10;48.00
30148;DHT22;16960;49.404;8.248;2022-09-09T10:21:16;25.10;48.30
30148;DHT22;16960;49.404;8.248;2022-09-09T10:24:11;25.20;48.30
30148;DHT22;16960;49.404;8.248;2022-09-09T10:26:49;25.20;48.30
30148;DHT22;16960;49.404;8.248;2022-09-09T10:29:44;25.20;48.30
30148;DHT22;16960;49.404;8.248;2022-09-09T10:35:27;25.20;48.10
30148;DHT22;16960;49.404;8.248;2022-09-09T10:38:14;25.30;47.50
30148;DHT22;16960;49.404;8.248;2022-09-09T10:40:59;25.30;47.30
30148;DHT22;16960;49.404;8.248;2022-09-09T10:43:46;25.30;47.40
30148;DHT22;16960;49.404;8.248;2022-09-09T10:46:22;25.30;47.40
30148;DHT22;16960;49.404;8.248;2022-09-09T10:49:05;25.30;47.40
30148;DHT22;16960;49.404;8.248;2022-09-09T10:51:40;25.30;47.20
30148;DHT22;16960;49.404;8.248;2022-09-09T10:54:31;25.30;47.20
30148;DHT22;16960;49.404;8.248;2022-09-09T10:57:05;25.30;46.80
30148;DHT22;16960;49.404;8.248;2022-09-09T10:59:38;25.40;46.40
30148;DHT22;16960;49.404;8.248;2022-09-09T11:02:13;25.40;46.00
30148;DHT22;16960;49.404;8.248;2022-09-09T11:04:47;25.40;45.70
30148;DHT22;16960;49.404;8.248;2022-09-09T11:07:24;25.40;45.70
30148;DHT22;16960;49.404;8.248;2022-09-09T11:10:04;25.50;45.60
30148;DHT22;16960;49.404;8.248;2022-09-09T11:12:36;25.50;45.40
30148;DHT22;16960;49.404;8.248;2022-09-09T11:15:06;25.50;45.10
30148;DHT22;16960;49.404;8.248;2022-09-09T11:17:39;25.50;45.10
30148;DHT22;16960;49.404;8.248;2022-09-09T11:20:11;25.50;44.80
30148;DHT22;16960;49.404;8.248;2022-09-09T11:22:44;25.50;44.70
30148;DHT22;16960;49.404;8.248;2022-09-09T11:25:16;25.50;44.50
30148;DHT22;16960;49.404;8.248;2022-09-09T11:27:57;25.50;44.50
30148;DHT22;16960;49.404;8.248;2022-09-09T11:30:34;25.50;44.50
30148;DHT22;16960;49.404;8.248;2022-09-09T11:33:24;25.50;44.50
30148;DHT22;16960;49.404;8.248;2022-09-09T11:36:19;25.50;44.60
30148;DHT22;16960;49.404;8.248;2022-09-09T11:38:51;25.60;44.50
30148;DHT22;16960;49.404;8.248;2022-09-09T11:41:20;25.60;44.80
30148;DHT22;16960;49.404;8.248;2022-09-09T11:43:50;25.70;44.90
30148;DHT22;16960;49.404;8.248;2022-09-09T11:46:19;25.70;44.80
30148;DHT22;16960;49.404;8.248;2022-09-09T11:48:58;25.70;44.60
30148;DHT22;16960;49.404;8.248;2022-09-09T11:51:27;25.70;44.60
30148;DHT22;16960;49.404;8.248;2022-09-09T11:53:56;25.70;44.50
30148;DHT22;16960;49.404;8.248;2022-09-09T11:56:26;25.70;44.50
30148;DHT22;16960;49.404;8.248;2022-09-09T11:58:58;25.70;44.60
30148;DHT22;16960;49.404;8.248;2022-09-09T12:01:37;25.70;45.40
30148;DHT22;16960;49.404;8.248;2022-09-09T12:06:57;25.70;44.90
30148;DHT22;16960;49.404;8.248;2022-09-09T12:09:32;25.70;45.10
30148;DHT22;16960;49.404;8.248;2022-09-09T12:12:18;25.70;44.90
30148;DHT22;16960;49.404;8.248;2022-09-09T12:15:00;25.70;45.10
30148;DHT22;16960;49.404;8.248;2022-09-09T12:17:29;25.70;45.30
30148;DHT22;16960;49.404;8.248;2022-09-09T12:20:08;25.70;45.50
30148;DHT22;16960;49.404;8.248;2022-09-09T12:22:49;25.80;45.50
30148;DHT22;16960;49.404;8.248;2022-09-09T12:25:25;25.80;45.70
30148;DHT22;16960;49.404;8.248;2022-09-09T12:28:03;25.80;45.70
30148;DHT22;16960;49.404;8.248;2022-09-09T12:30:37;25.70;45.80
30148;DHT22;16960;49.404;8.248;2022-09-09T12:33:11;25.70;45.90
30148;DHT22;16960;49.404;8.248;2022-09-09T12:35:40;25.80;46.00
30148;DHT22;16960;49.404;8.248;2022-09-09T12:38:13;25.80;46.00
30148;DHT22;16960;49.404;8.248;2022-09-09T12:40:41;25.80;46.80
30148;DHT22;16960;49.404;8.248;2022-09-09T12:43:18;25.80;46.10
30148;DHT22;16960;49.404;8.248;2022-09-09T12:45:48;25.70;46.00
30148;DHT22;16960;49.404;8.248;2022-09-09T12:48:28;25.80;46.10
30148;DHT22;16960;49.404;8.248;2022-09-09T12:50:57;25.80;46.30
30148;DHT22;16960;49.404;8.248;2022-09-09T12:53:26;25.70;46.50
30148;DHT22;16960;49.404;8.248;2022-09-09T12:55:56;25.70;46.60
30148;DHT22;16960;49.404;8.248;2022-09-09T12:58:24;25.80;46.50
30148;DHT22;16960;49.404;8.248;2022-09-09T13:00:55;25.80;46.60
30148;DHT22;16960;49.404;8.248;2022-09-09T13:03:23;25.70;46.50
30148;DHT22;16960;49.404;8.248;2022-09-09T13:05:51;25.70;46.60
30148;DHT22;16960;49.404;8.248;2022-09-09T13:08:18;25.80;46.70
30148;DHT22;16960;49.404;8.248;2022-09-09T13:10:48;25.80;46.60
30148;DHT22;16960;49.404;8.248;2022-09-09T13:13:22;25.90;46.40
30148;DHT22;16960;49.404;8.248;2022-09-09T13:15:51;26.00;46.80
30148;DHT22;16960;49.404;8.248;2022-09-09T13:18:22;25.90;46.50
30148;DHT22;16960;49.404;8.248;2022-09-09T13:20:50;26.00;46.90
30148;DHT22;16960;49.404;8.248;2022-09-09T13:23:19;25.90;46.30
30148;DHT22;16960;49.404;8.248;2022-09-09T13:25:53;26.00;46.80
30148;DHT22;16960;49.404;8.248;2022-09-09T13:28:22;26.00;46.80
30148;DHT22;16960;49.404;8.248;2022-09-09T13:30:57;26.00;46.80
30148;DHT22;16960;49.404;8.248;2022-09-09T13:33:32;25.90;46.30
30148;DHT22;16960;49.404;8.248;2022-09-09T13:36:01;26.00;46.70
30148;DHT22;16960;49.404;8.248;2022-09-09T13:38:32;26.00;46.40
30148;DHT22;16960;49.404;8.248;2022-09-09T13:41:02;26.00;46.20
30148;DHT22;16960;49.404;8.248;2022-09-09T13:43:31;26.00;46.00
30148;DHT22;16960;49.404;8.248;2022-09-09T13:46:00;25.90;45.40
30148;DHT22;16960;49.404;8.248;2022-09-09T13:48:27;26.00;45.90
30148;DHT22;16960;49.404;8.248;2022-09-09T13:50:58;25.90;45.50
30148;DHT22;16960;49.404;8.248;2022-09-09T13:53:26;25.90;45.50
30148;DHT22;16960;49.404;8.248;2022-09-09T13:55:53;25.90;45.40
30148;DHT22;16960;49.404;8.248;2022-09-09T13:58:21;25.90;45.40
30148;DHT22;16960;49.404;8.248;2022-09-09T14:00:48;25.90;45.60
30148;DHT22;16960;49.404;8.248;2022-09-09T14:03:16;25.90;45.60
30148;DHT22;16960;49.404;8.248;2022-09-09T14:05:44;25.90;45.50
30148;DHT22;16960;49.404;8.248;2022-09-09T14:08:21;25.90;45.50
30148;DHT22;16960;49.404;8.248;2022-09-09T14:10:49;25.90;45.40
30148;DHT22;16960;49.404;8.248;2022-09-09T14:13:16;25.90;45.40
30148;DHT22;16960;49.404;8.248;2022-09-09T14:15:43;25.90;45.40
30148;DHT22;16960;49.404;8.248;2022-09-09T14:18:11;25.90;45.40
30148;DHT22;16960;49.404;8.248;2022-09-09T14:20:40;26.00;45.80
30148;DHT22;16960;49.404;8.248;2022-09-09T14:23:10;26.00;45.80
30148;DHT22;16960;49.404;8.248;2022-09-09T14:25:41;26.00;45.70
30148;DHT22;16960;49.404;8.248;2022-09-09T14:28:10;26.00;45.90
30148;DHT22;16960;49.404;8.248;2022-09-09T14:30:38;26.00;45.90
30148;DHT22;16960;49.404;8.248;2022-09-09T14:33:05;26.00;46.10
30148;DHT22;16960;49.404;8.248;2022-09-09T14:35:32;26.00;46.00
30148;DHT22;16960;49.404;8.248;2022-09-09T14:38:00;26.00;45.80
30148;DHT22;16960;49.404;8.248;2022-09-09T14:40:28;26.00;45.80
30148;DHT22;16960;49.404;8.248;2022-09-09T14:42:56;25.90;45.20
30148;DHT22;16960;49.404;8.248;2022-09-09T14:45:24;25.90;46.20
30148;DHT22;16960;49.404;8.248;2022-09-09T14:47:52;25.90;45.40
30148;DHT22;16960;49.404;8.248;2022-09-09T14:50:19;25.90;45.50
30148;DHT22;16960;49.404;8.248;2022-09-09T14:52:46;25.90;45.40
30148;DHT22;16960;49.404;8.248;2022-09-09T14:55:14;25.90;45.60
30148;DHT22;16960;49.404;8.248;2022-09-09T14:57:41;25.90;45.10
30148;DHT22;16960;49.404;8.248;2022-09-09T15:00:10;25.80;45.20
30148;DHT22;16960;49.404;8.248;2022-09-09T15:02:38;25.70;45.40
30148;DHT22;16960;49.404;8.248;2022-09-09T15:05:05;25.70;45.80
30148;DHT22;16960;49.404;8.248;2022-09-09T15:07:33;25.70;46.10
30148;DHT22;16960;49.404;8.248;2022-09-09T15:10:02;25.70;46.10
30148;DHT22;16960;49.404;8.248;2022-09-09T15:12:28;25.70;46.10
30148;DHT22;16960;49.404;8.248;2022-09-09T15:14:55;25.70;46.30
30148;DHT22;16960;49.404;8.248;2022-09-09T15:17:24;25.70;46.30
30148;DHT22;16960;49.404;8.248;2022-09-09T15:19:53;25.60;46.30
30148;DHT22;16960;49.404;8.248;2022-09-09T15:22:20;25.60;46.50
30148;DHT22;16960;49.404;8.248;2022-09-09T15:24:48;25.60;46.50
30148;DHT22;16960;49.404;8.248;2022-09-09T15:27:14;25.60;46.70
30148;DHT22;16960;49.404;8.248;2022-09-09T15:29:41;25.50;47.10
30148;DHT22;16960;49.404;8.248;2022-09-09T15:32:09;25.50;47.50
30148;DHT22;16960;49.404;8.248;2022-09-09T15:34:38;25.50;47.90
30148;DHT22;16960;49.404;8.248;2022-09-09T15:37:05;25.50;48.10
30148;DHT22;16960;49.404;8.248;2022-09-09T15:39:33;25.60;48.10
30148;DHT22;16960;49.404;8.248;2022-09-09T15:42:00;25.60;48.20
30148;DHT22;16960;49.404;8.248;2022-09-09T15:44:28;25.60;48.20
30148;DHT22;16960;49.404;8.248;2022-09-09T15:46:55;25.60;48.20
30148;DHT22;16960;49.404;8.248;2022-09-09T15:49:24;25.70;48.10
30148;DHT22;16960;49.404;8.248;2022-09-09T15:51:55;25.70;48.00
30148;DHT22;16960;49.404;8.248;2022-09-09T15:54:24;25.70;48.00
30148;DHT22;16960;49.404;8.248;2022-09-09T15:56:53;25.70;47.90
30148;DHT22;16960;49.404;8.248;2022-09-09T15:59:21;25.70;47.90
30148;DHT22;16960;49.404;8.248;2022-09-09T16:01:48;25.70;48.00
30148;DHT22;16960;49.404;8.248;2022-09-09T16:04:17;25.70;47.90